Terminal Aerodrome Forecast
Issued by NWS

Home | Current Version | Previous Version | Text Only | Print | Product List | Glossary On
Versions: 1 2 3 4 5 6 7 8 9 10 11 12 13 14 15 16 17 18
751
FTUS43 KIND 230521
TAFLAF
TAF
KLAF 230521Z 2306/2406 04004KT 5SM SHRA BR OVC040
     FM230700 VRB03KT 6SM SHRA BR OVC045
     FM231200 09007KT 6SM SHRA OVC015
     FM231400 02007KT 4SM SHRA OVC008
     FM231900 33008KT P6SM OVC010
     FM232200 31006KT P6SM BKN045
      AMD LTD TO CLD VIS AND WIND TIL 231300=

USA.gov is the U.S. government's official web portal to all federal, state and local government web resources and services.